Weather at Turner Valley Bar N Ranch Airport

Public forecast

Using degrees Celsius for public forecast. Weather courtesy of forecast.io.

Closest aviation weather report (METAR) to Turner Valley Bar N Ranch Airport

Closest report is Calgary / Springbank Airport, 27.0 nm (49.9 km) N.

2024/05/22 17:00 (retrieved 12 minutes ago)

CYBW 221700Z AUTO 08008KT 9SM -RA BKN014 BKN026 OVC039 05/04 A2984 RMK SLP136

Closest aviation forecast (TAF) to Turner Valley Bar N Ranch Airport

Closest forecast is Calgary / Springbank Airport, 27.0 nm (49.9 km) N.

2024/05/22 14:00 Ammendment (retrieved 3 hours ago)

TAF AMD TAF AMD CYBW 221458Z 2214/2224 09010KT 6SM -RA BR SCT005 OVC010 TEMPO 2214/2220 2SM -RA BR BKN005 OVC010 FM222000 05008KT 6SM -SHRA BR SCT010 OVC025 TEMPO 2220/2224 4SM -SHRA BR BKN010 OVC020 RMK FCST BASED ON AUTO OBS NXT FCST BY 221800Z